PWSweather.com
Personal Weather Stations
Station Observations
KOMOKA
Komoka Village, Komoka, ON N0L IRO

Komoka VillageKomoka, ON N0L IRO

Lat: 42.9542444, Lon: -81.4348861

Elevation: 805

Station Type: Davis Vantage Pro 2

www.komokaweather.com

High Low Average
Temperature 57.9°F14.4°C 37.9°F3.3°C 45.4°F7.4°C
Dew Point 50.2°F10.1°C 27.3°F-2.6°C 32.6°F0.3°C
Winds 7.0 mph 11.3 kmh Calm Calm 3.0 mph ENE4.8 kmh ENE
Wind Gusts 24.0 mph38.6 kmh -- 10.0 mph16.1 kmh
Humidity 75% 47% 61%
Pressure 29.95 in1014.2 mb 29.77 in1008.1 mb -
Precipitation 0.48 in12.2 mm - -
Hour Temp Dew Point Humidity Winds Wind Gusts Pressure Precip Precip Rate Daily Precip Total
12:02 AM 57.9°F14.4°C 48.2°F9.0°C 70% 3.0 mph ENE4.8 kmh ENE 8.0 mph12.9 kmh 29.79 in1008.8 mb 0.09 in2.3 mm 2.70 in68.6 mm 0.09 in2.3 mm
12:09 AM 57.9°F14.4°C 48.6°F9.2°C 71% 1.0 mph NE1.6 kmh NE 12.0 mph19.3 kmh 29.78 in1008.5 mb 0.09 in2.3 mm 0.00 in0.0 mm 0.09 in2.3 mm
12:16 AM 57.9°F14.4°C 49.5°F9.7°C 73% 1.0 mph NE1.6 kmh NE 12.0 mph19.3 kmh 29.78 in1008.5 mb 0.10 in2.5 mm 0.09 in2.3 mm 0.11 in2.8 mm
12:23 AM 57.9°F14.4°C 49.5°F9.7°C 73% 3.0 mph ENE4.8 kmh ENE 7.0 mph11.3 kmh 29.77 in1008.1 mb 0.09 in2.3 mm 0.00 in0.0 mm 0.11 in2.8 mm
12:30 AM 57.9°F14.4°C 49.6°F9.8°C 74% 3.0 mph ENE4.8 kmh ENE 9.0 mph14.5 kmh 29.77 in1008.1 mb 0.09 in2.3 mm 0.00 in0.0 mm 0.12 in3.0 mm
12:37 AM 57.7°F14.3°C 49.6°F9.8°C 74% 1.0 mph ENE1.6 kmh ENE 9.0 mph14.5 kmh 29.77 in1008.1 mb 0.08 in2.0 mm 0.00 in0.0 mm 0.12 in3.0 mm
12:44 AM 57.9°F14.4°C 50.0°F10.0°C 75% 1.0 mph E1.6 kmh E 5.0 mph8.0 kmh 29.77 in1008.1 mb 0.07 in1.8 mm 0.00 in0.0 mm 0.12 in3.0 mm
12:51 AM 57.9°F14.4°C 50.2°F10.1°C 75% 1.0 mph ENE1.6 kmh ENE 3.0 mph4.8 kmh 29.77 in1008.1 mb 0.06 in1.5 mm 0.00 in0.0 mm 0.12 in3.0 mm
12:58 AM 56.7°F13.7°C 47.7°F8.7°C 72% 3.0 mph NNW4.8 kmh NNW 13.0 mph20.9 kmh 29.78 in1008.5 mb 0.05 in1.3 mm 0.00 in0.0 mm 0.13 in3.3 mm
01:05 AM 53.4°F11.9°C 44.2°F6.8°C 71% 7.0 mph NW11.3 kmh NW 19.0 mph30.6 kmh 29.79 in1008.8 mb 0.06 in1.5 mm 0.01 in0.3 mm 0.17 in4.3 mm
01:12 AM 52.3°F11.3°C 43.7°F6.5°C 72% 5.0 mph N8.0 kmh N 17.0 mph27.4 kmh 29.79 in1008.8 mb 0.09 in2.3 mm 0.26 in6.6 mm 0.20 in5.1 mm
01:19 AM 52.2°F11.2°C 43.9°F6.6°C 73% 4.0 mph N6.4 kmh N 13.0 mph20.9 kmh 29.79 in1008.8 mb 0.09 in2.3 mm 0.00 in0.0 mm 0.21 in5.3 mm
01:26 AM 52.0°F11.1°C 43.9°F6.6°C 74% 4.0 mph N6.4 kmh N 8.0 mph12.9 kmh 29.80 in1009.1 mb 0.09 in2.3 mm 0.00 in0.0 mm 0.21 in5.3 mm
01:33 AM 51.6°F10.9°C 43.7°F6.5°C 74% 4.0 mph N6.4 kmh N 12.0 mph19.3 kmh 29.80 in1009.1 mb 0.10 in2.5 mm 0.09 in2.3 mm 0.22 in5.6 mm
01:40 AM 51.4°F10.8°C 43.3°F6.3°C 74% 7.0 mph N11.3 kmh N 17.0 mph27.4 kmh 29.80 in1009.1 mb 0.12 in3.0 mm 0.17 in4.3 mm 0.24 in6.1 mm
01:47 AM 51.1°F10.6°C 43.2°F6.2°C 74% 5.0 mph N8.0 kmh N 16.0 mph25.7 kmh 29.81 in1009.5 mb 0.13 in3.3 mm 0.09 in2.3 mm 0.24 in6.1 mm
01:54 AM 50.7°F10.4°C 42.8°F6.0°C 74% 5.0 mph N8.0 kmh N 13.0 mph20.9 kmh 29.81 in1009.5 mb 0.13 in3.3 mm 0.00 in0.0 mm 0.25 in6.4 mm
02:01 AM 50.5°F10.3°C 42.6°F5.9°C 74% 5.0 mph N8.0 kmh N 13.0 mph20.9 kmh 29.81 in1009.5 mb 0.13 in3.3 mm 0.00 in0.0 mm 0.27 in6.9 mm
02:08 AM 50.4°F10.2°C 42.4°F5.8°C 74% 5.0 mph N8.0 kmh N 15.0 mph24.1 kmh 29.82 in1009.8 mb 0.09 in2.3 mm 0.00 in0.0 mm 0.28 in7.1 mm
02:15 AM 50.4°F10.2°C 42.4°F5.8°C 74% 5.0 mph N8.0 kmh N 15.0 mph24.1 kmh 29.82 in1009.8 mb 0.09 in2.3 mm 0.00 in0.0 mm 0.28 in7.1 mm
02:22 AM 50.4°F10.2°C 42.3°F5.7°C 74% 4.0 mph N6.4 kmh N 11.0 mph17.7 kmh 29.82 in1009.8 mb 0.08 in2.0 mm 0.00 in0.0 mm 0.29 in7.4 mm
02:29 AM 50.4°F10.2°C 42.6°F5.9°C 75% 4.0 mph N6.4 kmh N 11.0 mph17.7 kmh 29.81 in1009.5 mb 0.08 in2.0 mm 0.00 in0.0 mm 0.29 in7.4 mm
02:36 AM 50.2°F10.1°C 42.4°F5.8°C 75% 4.0 mph N6.4 kmh N 9.0 mph14.5 kmh 29.80 in1009.1 mb 0.06 in1.5 mm 0.00 in0.0 mm 0.29 in7.4 mm
02:43 AM 49.6°F9.8°C 41.7°F5.4°C 74% 4.0 mph N6.4 kmh N 9.0 mph14.5 kmh 29.81 in1009.5 mb 0.05 in1.3 mm 0.00 in0.0 mm 0.29 in7.4 mm
02:50 AM 49.3°F9.6°C 41.2°F5.1°C 74% 4.0 mph N6.4 kmh N 13.0 mph20.9 kmh 29.81 in1009.5 mb 0.05 in1.3 mm 0.00 in0.0 mm 0.30 in7.6 mm
02:57 AM 48.7°F9.3°C 40.8°F4.9°C 74% 4.0 mph N6.4 kmh N 13.0 mph20.9 kmh 29.81 in1009.5 mb 0.06 in1.5 mm 0.09 in2.3 mm 0.31 in7.9 mm
03:04 AM 48.7°F9.3°C 41.2°F5.1°C 75% 4.0 mph N6.4 kmh N 13.0 mph20.9 kmh 29.82 in1009.8 mb 0.06 in1.5 mm 0.00 in0.0 mm 0.32 in8.1 mm
03:11 AM 48.4°F9.1°C 40.5°F4.7°C 74% 4.0 mph N6.4 kmh N 8.0 mph12.9 kmh 29.82 in1009.8 mb 0.06 in1.5 mm 0.00 in0.0 mm 0.33 in8.4 mm
03:18 AM 48.0°F8.9°C 40.5°F4.7°C 75% 4.0 mph N6.4 kmh N 9.0 mph14.5 kmh 29.82 in1009.8 mb 0.05 in1.3 mm 0.00 in0.0 mm 0.33 in8.4 mm
03:25 AM 48.0°F8.9°C 40.5°F4.7°C 75% 4.0 mph N6.4 kmh N 9.0 mph14.5 kmh 29.82 in1009.8 mb 0.05 in1.3 mm 0.00 in0.0 mm 0.34 in8.6 mm
03:32 AM 48.0°F8.9°C 40.5°F4.7°C 75% 4.0 mph N6.4 kmh N 9.0 mph14.5 kmh 29.82 in1009.8 mb 0.06 in1.5 mm 0.09 in2.3 mm 0.35 in8.9 mm
03:39 AM 47.7°F8.7°C 39.7°F4.3°C 74% 4.0 mph N6.4 kmh N 13.0 mph20.9 kmh 29.83 in1010.2 mb 0.07 in1.8 mm 0.09 in2.3 mm 0.36 in9.1 mm
03:46 AM 47.1°F8.4°C 39.2°F4.0°C 74% 5.0 mph N8.0 kmh N 15.0 mph24.1 kmh 29.82 in1009.8 mb 0.08 in2.0 mm 0.09 in2.3 mm 0.37 in9.4 mm
03:53 AM 46.2°F7.9°C 38.5°F3.6°C 74% 7.0 mph N11.3 kmh N 20.0 mph32.2 kmh 29.83 in1010.2 mb 0.08 in2.0 mm 0.00 in0.0 mm 0.39 in9.9 mm
04:00 AM 46.0°F7.8°C 38.1°F3.4°C 74% 5.0 mph N8.0 kmh N 12.0 mph19.3 kmh 29.83 in1010.2 mb 0.08 in2.0 mm 0.00 in0.0 mm 0.39 in9.9 mm
04:07 AM 45.7°F7.6°C 37.9°F3.3°C 74% 5.0 mph N8.0 kmh N 15.0 mph24.1 kmh 29.84 in1010.5 mb 0.07 in1.8 mm 0.00 in0.0 mm 0.40 in10.2 mm
04:14 AM 45.5°F7.5°C 37.8°F3.2°C 74% 5.0 mph N8.0 kmh N 15.0 mph24.1 kmh 29.84 in1010.5 mb 0.08 in2.0 mm 0.09 in2.3 mm 0.42 in10.7 mm
04:21 AM 45.1°F7.3°C 37.2°F2.9°C 74% 5.0 mph N8.0 kmh N 13.0 mph20.9 kmh 29.84 in1010.5 mb 0.09 in2.3 mm 0.09 in2.3 mm 0.43 in10.9 mm
04:28 AM 45.0°F7.2°C 37.0°F2.8°C 74% 5.0 mph N8.0 kmh N 13.0 mph20.9 kmh 29.84 in1010.5 mb 0.09 in2.3 mm 0.00 in0.0 mm 0.43 in10.9 mm
04:35 AM 45.0°F7.2°C 37.2°F2.9°C 74% 4.0 mph N6.4 kmh N 9.0 mph14.5 kmh 29.84 in1010.5 mb 0.09 in2.3 mm 0.00 in0.0 mm 0.44 in11.2 mm
04:42 AM 45.0°F7.2°C 37.2°F2.9°C 74% 4.0 mph N6.4 kmh N 8.0 mph12.9 kmh 29.85 in1010.8 mb 0.08 in2.0 mm 0.00 in0.0 mm 0.44 in11.2 mm
04:49 AM 45.0°F7.2°C 37.6°F3.1°C 75% 4.0 mph N6.4 kmh N 8.0 mph12.9 kmh 29.85 in1010.8 mb 0.06 in1.5 mm 0.00 in0.0 mm 0.44 in11.2 mm
04:56 AM 44.4°F6.9°C 36.7°F2.6°C 74% 5.0 mph N8.0 kmh N 15.0 mph24.1 kmh 29.85 in1010.8 mb 0.06 in1.5 mm 0.00 in0.0 mm 0.44 in11.2 mm
05:03 AM 44.1°F6.7°C 36.3°F2.4°C 74% 7.0 mph N11.3 kmh N 15.0 mph24.1 kmh 29.86 in1011.2 mb 0.06 in1.5 mm 0.00 in0.0 mm 0.45 in11.4 mm
05:10 AM 44.1°F6.7°C 36.0°F2.2°C 73% 5.0 mph N8.0 kmh N 13.0 mph20.9 kmh 29.86 in1011.2 mb 0.04 in1.0 mm 0.00 in0.0 mm 0.45 in11.4 mm
05:17 AM 44.1°F6.7°C 36.0°F2.2°C 73% 4.0 mph N6.4 kmh N 11.0 mph17.7 kmh 29.87 in1011.5 mb 0.03 in0.8 mm 0.00 in0.0 mm 0.45 in11.4 mm
05:24 AM 44.1°F6.7°C 35.6°F2.0°C 72% 5.0 mph N8.0 kmh N 13.0 mph20.9 kmh 29.87 in1011.5 mb 0.02 in0.5 mm 0.00 in0.0 mm 0.45 in11.4 mm
05:31 AM 43.9°F6.6°C 34.7°F1.5°C 70% 5.0 mph N8.0 kmh N 16.0 mph25.7 kmh 29.86 in1011.2 mb 0.02 in0.5 mm 0.00 in0.0 mm 0.45 in11.4 mm
05:38 AM 44.1°F6.7°C 34.2°F1.2°C 68% 5.0 mph N8.0 kmh N 16.0 mph25.7 kmh 29.87 in1011.5 mb 0.01 in0.3 mm 0.00 in0.0 mm 0.45 in11.4 mm
05:45 AM 44.1°F6.7°C 33.8°F1.0°C 67% 5.0 mph N8.0 kmh N 13.0 mph20.9 kmh 29.87 in1011.5 mb 0.01 in0.3 mm 0.00 in0.0 mm 0.45 in11.4 mm
05:52 AM 43.9°F6.6°C 33.6°F0.9°C 67% 5.0 mph N8.0 kmh N 13.0 mph20.9 kmh 29.87 in1011.5 mb 0.01 in0.3 mm 0.00 in0.0 mm 0.45 in11.4 mm
05:59 AM 44.1°F6.7°C 33.8°F1.0°C 67% 4.0 mph N6.4 kmh N 12.0 mph19.3 kmh 29.88 in1011.9 mb 0.00 in0.0 mm 0.00 in0.0 mm 0.45 in11.4 mm
06:06 AM 44.1°F6.7°C 33.8°F1.0°C 67% 3.0 mph N4.8 kmh N 12.0 mph19.3 kmh 29.88 in1011.9 mb 0.00 in0.0 mm 0.00 in0.0 mm 0.45 in11.4 mm
06:13 AM 43.9°F6.6°C 34.0°F1.1°C 68% 4.0 mph N6.4 kmh N 13.0 mph20.9 kmh 29.88 in1011.9 mb 0.00 in0.0 mm 0.00 in0.0 mm 0.45 in11.4 mm
06:20 AM 43.9°F6.6°C 34.0°F1.1°C 68% 4.0 mph N6.4 kmh N 13.0 mph20.9 kmh 29.88 in1011.9 mb 0.00 in0.0 mm 0.00 in0.0 mm 0.45 in11.4 mm
06:27 AM 43.9°F6.6°C 34.0°F1.1°C 68% 5.0 mph N8.0 kmh N 17.0 mph27.4 kmh 29.89 in1012.2 mb 0.00 in0.0 mm 0.00 in0.0 mm 0.45 in11.4 mm
06:34 AM 43.7°F6.5°C 33.8°F1.0°C 68% 7.0 mph N11.3 kmh N 13.0 mph20.9 kmh 29.89 in1012.2 mb 0.00 in0.0 mm 0.00 in0.0 mm 0.45 in11.4 mm
06:41 AM 43.3°F6.3°C 33.1°F0.6°C 67% 7.0 mph N11.3 kmh N 16.0 mph25.7 kmh 29.89 in1012.2 mb 0.00 in0.0 mm 0.00 in0.0 mm 0.45 in11.4 mm
06:48 AM 42.6°F5.9°C 32.0°F0.0°C 66% 7.0 mph N11.3 kmh N 13.0 mph20.9 kmh 29.90 in1012.5 mb 0.00 in0.0 mm 0.00 in0.0 mm 0.45 in11.4 mm
06:55 AM 42.1°F5.6°C 31.1°F-0.5°C 65% 7.0 mph N11.3 kmh N 17.0 mph27.4 kmh 29.90 in1012.5 mb 0.00 in0.0 mm 0.00 in0.0 mm 0.45 in11.4 mm
07:02 AM 41.7°F5.4°C 30.9°F-0.6°C 65% 7.0 mph N11.3 kmh N 17.0 mph27.4 kmh 29.90 in1012.5 mb 0.00 in0.0 mm 0.00 in0.0 mm 0.45 in11.4 mm
07:09 AM 41.7°F5.4°C 30.7°F-0.7°C 65% 7.0 mph N11.3 kmh N 16.0 mph25.7 kmh 29.91 in1012.9 mb 0.00 in0.0 mm 0.00 in0.0 mm 0.45 in11.4 mm
07:16 AM 41.5°F5.3°C 30.4°F-0.9°C 64% 5.0 mph N8.0 kmh N 12.0 mph19.3 kmh 29.91 in1012.9 mb 0.00 in0.0 mm 0.00 in0.0 mm 0.45 in11.4 mm
07:23 AM 41.5°F5.3°C 30.4°F-0.9°C 64% 5.0 mph N8.0 kmh N 12.0 mph19.3 kmh 29.91 in1012.9 mb 0.00 in0.0 mm 0.00 in0.0 mm 0.45 in11.4 mm
07:30 AM 41.4°F5.2°C 29.7°F-1.3°C 63% 5.0 mph N8.0 kmh N 12.0 mph19.3 kmh 29.91 in1012.9 mb 0.00 in0.0 mm 0.00 in0.0 mm 0.45 in11.4 mm
07:37 AM 41.2°F5.1°C 30.0°F-1.1°C 64% 4.0 mph N6.4 kmh N 11.0 mph17.7 kmh 29.91 in1012.9 mb 0.00 in0.0 mm 0.00 in0.0 mm 0.45 in11.4 mm
07:44 AM 41.4°F5.2°C 30.0°F-1.1°C 64% 4.0 mph N6.4 kmh N 12.0 mph19.3 kmh 29.91 in1012.9 mb 0.00 in0.0 mm 0.00 in0.0 mm 0.45 in11.4 mm
07:51 AM 41.4°F5.2°C 30.2°F-1.0°C 64% 3.0 mph N4.8 kmh N 12.0 mph19.3 kmh 29.91 in1012.9 mb 0.00 in0.0 mm 0.00 in0.0 mm 0.45 in11.4 mm
07:58 AM 41.5°F5.3°C 29.8°F-1.2°C 63% 4.0 mph N6.4 kmh N 15.0 mph24.1 kmh 29.92 in1013.2 mb 0.00 in0.0 mm 0.00 in0.0 mm 0.45 in11.4 mm
08:05 AM 41.9°F5.5°C 29.8°F-1.2°C 62% 4.0 mph N6.4 kmh N 15.0 mph24.1 kmh 29.92 in1013.2 mb 0.00 in0.0 mm 0.00 in0.0 mm 0.45 in11.4 mm
08:12 AM 42.3°F5.7°C 30.0°F-1.1°C 62% 4.0 mph N6.4 kmh N 15.0 mph24.1 kmh 29.92 in1013.2 mb 0.03 in0.8 mm 0.26 in6.6 mm 0.48 in12.2 mm
08:19 AM 42.4°F5.8°C 30.0°F-1.1°C 61% 4.0 mph N6.4 kmh N 11.0 mph17.7 kmh 29.92 in1013.2 mb 0.03 in0.8 mm 0.00 in0.0 mm 0.48 in12.2 mm
08:26 AM 42.8°F6.0°C 29.8°F-1.2°C 60% 4.0 mph N6.4 kmh N 13.0 mph20.9 kmh 29.92 in1013.2 mb 0.03 in0.8 mm 0.00 in0.0 mm 0.48 in12.2 mm
08:33 AM 43.2°F6.2°C 29.7°F-1.3°C 59% 4.0 mph N6.4 kmh N 15.0 mph24.1 kmh 29.93 in1013.5 mb 0.03 in0.8 mm 0.00 in0.0 mm 0.48 in12.2 mm
08:40 AM 43.5°F6.4°C 30.2°F-1.0°C 59% 4.0 mph N6.4 kmh N 15.0 mph24.1 kmh 29.93 in1013.5 mb 0.03 in0.8 mm 0.00 in0.0 mm 0.48 in12.2 mm
08:47 AM 43.5°F6.4°C 30.2°F-1.0°C 59% 4.0 mph N6.4 kmh N 15.0 mph24.1 kmh 29.93 in1013.5 mb 0.03 in0.8 mm 0.00 in0.0 mm 0.48 in12.2 mm
08:54 AM 43.7°F6.5°C 30.7°F-0.7°C 60% 5.0 mph N8.0 kmh N 15.0 mph24.1 kmh 29.93 in1013.5 mb 0.03 in0.8 mm 0.00 in0.0 mm 0.48 in12.2 mm
09:01 AM 44.2°F6.8°C 31.1°F-0.5°C 60% 4.0 mph N6.4 kmh N 12.0 mph19.3 kmh 29.94 in1013.9 mb 0.03 in0.8 mm 0.00 in0.0 mm 0.48 in12.2 mm
09:08 AM 44.6°F7.0°C 31.1°F-0.5°C 59% 5.0 mph W8.0 kmh W 13.0 mph20.9 kmh 29.93 in1013.5 mb 0.00 in0.0 mm 0.00 in0.0 mm 0.48 in12.2 mm
09:15 AM 44.8°F7.1°C 30.9°F-0.6°C 58% 5.0 mph W8.0 kmh W 13.0 mph20.9 kmh 29.93 in1013.5 mb 0.00 in0.0 mm 0.00 in0.0 mm 0.48 in12.2 mm
09:22 AM 45.0°F7.2°C 31.1°F-0.5°C 58% 5.0 mph W8.0 kmh W 16.0 mph25.7 kmh 29.93 in1013.5 mb 0.00 in0.0 mm 0.00 in0.0 mm 0.48 in12.2 mm
09:29 AM 44.2°F6.8°C 29.8°F-1.2°C 57% 5.0 mph NNW8.0 kmh NNW 16.0 mph25.7 kmh 29.93 in1013.5 mb 0.00 in0.0 mm 0.00 in0.0 mm 0.48 in12.2 mm
09:36 AM 44.4°F6.9°C 30.6°F-0.8°C 58% 5.0 mph N8.0 kmh N 15.0 mph24.1 kmh 29.94 in1013.9 mb 0.00 in0.0 mm 0.00 in0.0 mm 0.48 in12.2 mm
09:43 AM 44.8°F7.1°C 29.1°F-1.6°C 54% 5.0 mph WNW8.0 kmh WNW 16.0 mph25.7 kmh 29.93 in1013.5 mb 0.00 in0.0 mm 0.00 in0.0 mm 0.48 in12.2 mm
09:50 AM 45.7°F7.6°C 30.0°F-1.1°C 54% 7.0 mph WSW11.3 kmh WSW 16.0 mph25.7 kmh 29.94 in1013.9 mb 0.00 in0.0 mm 0.00 in0.0 mm 0.48 in12.2 mm
09:57 AM 45.9°F7.7°C 30.2°F-1.0°C 54% 5.0 mph WSW8.0 kmh WSW 13.0 mph20.9 kmh 29.94 in1013.9 mb 0.00 in0.0 mm 0.00 in0.0 mm 0.48 in12.2 mm
10:04 AM 45.0°F7.2°C 28.9°F-1.7°C 53% 7.0 mph NNW11.3 kmh NNW 19.0 mph30.6 kmh 29.94 in1013.9 mb 0.00 in0.0 mm 0.00 in0.0 mm 0.48 in12.2 mm
10:11 AM 45.7°F7.6°C 30.0°F-1.1°C 54% 5.0 mph N8.0 kmh N 13.0 mph20.9 kmh 29.94 in1013.9 mb 0.00 in0.0 mm 0.00 in0.0 mm 0.48 in12.2 mm
10:18 AM 46.0°F7.8°C 29.8°F-1.2°C 53% 5.0 mph NW8.0 kmh NW 19.0 mph30.6 kmh 29.94 in1013.9 mb 0.00 in0.0 mm 0.00 in0.0 mm 0.48 in12.2 mm
10:25 AM 45.5°F7.5°C 29.3°F-1.5°C 53% 5.0 mph N8.0 kmh N 13.0 mph20.9 kmh 29.94 in1013.9 mb 0.00 in0.0 mm 0.00 in0.0 mm 0.48 in12.2 mm
10:32 AM 45.7°F7.6°C 30.4°F-0.9°C 55% 5.0 mph N8.0 kmh N 13.0 mph20.9 kmh 29.94 in1013.9 mb 0.00 in0.0 mm 0.00 in0.0 mm 0.48 in12.2 mm
10:39 AM 45.7°F7.6°C 30.4°F-0.9°C 55% 4.0 mph N6.4 kmh N 13.0 mph20.9 kmh 29.95 in1014.2 mb 0.00 in0.0 mm 0.00 in0.0 mm 0.48 in12.2 mm
10:46 AM 45.5°F7.5°C 31.1°F-0.5°C 57% 4.0 mph N6.4 kmh N 9.0 mph14.5 kmh 29.95 in1014.2 mb 0.00 in0.0 mm 0.00 in0.0 mm 0.48 in12.2 mm
10:53 AM 45.9°F7.7°C 31.5°F-0.3°C 57% 5.0 mph N8.0 kmh N 12.0 mph19.3 kmh 29.95 in1014.2 mb 0.00 in0.0 mm 0.00 in0.0 mm 0.48 in12.2 mm
11:00 AM 46.2°F7.9°C 31.5°F-0.3°C 56% 4.0 mph N6.4 kmh N 9.0 mph14.5 kmh 29.94 in1013.9 mb 0.00 in0.0 mm 0.00 in0.0 mm 0.48 in12.2 mm
11:07 AM 47.1°F8.4°C 31.3°F-0.4°C 54% 5.0 mph W8.0 kmh W 13.0 mph20.9 kmh 29.94 in1013.9 mb 0.00 in0.0 mm 0.00 in0.0 mm 0.48 in12.2 mm
11:14 AM 47.1°F8.4°C 30.9°F-0.6°C 53% 5.0 mph WSW8.0 kmh WSW 15.0 mph24.1 kmh 29.94 in1013.9 mb 0.00 in0.0 mm 0.00 in0.0 mm 0.48 in12.2 mm
11:21 AM 45.9°F7.7°C 30.2°F-1.0°C 54% 7.0 mph W11.3 kmh W 15.0 mph24.1 kmh 29.94 in1013.9 mb 0.00 in0.0 mm 0.00 in0.0 mm 0.48 in12.2 mm
11:28 AM 45.9°F7.7°C 30.2°F-1.0°C 54% 5.0 mph N8.0 kmh N 17.0 mph27.4 kmh 29.94 in1013.9 mb 0.00 in0.0 mm 0.00 in0.0 mm 0.48 in12.2 mm
11:35 AM 46.4°F8.0°C 30.2°F-1.0°C 53% 5.0 mph N8.0 kmh N 13.0 mph20.9 kmh 29.94 in1013.9 mb 0.00 in0.0 mm 0.00 in0.0 mm 0.48 in12.2 mm
11:42 AM 45.7°F7.6°C 30.0°F-1.1°C 54% 5.0 mph N8.0 kmh N 16.0 mph25.7 kmh 29.95 in1014.2 mb 0.00 in0.0 mm 0.00 in0.0 mm 0.48 in12.2 mm
11:49 AM 46.8°F8.2°C 30.0°F-1.1°C 52% 4.0 mph N6.4 kmh N 15.0 mph24.1 kmh 29.94 in1013.9 mb 0.00 in0.0 mm 0.00 in0.0 mm 0.48 in12.2 mm
11:56 AM 47.1°F8.4°C 30.4°F-0.9°C 52% 5.0 mph NNW8.0 kmh NNW 15.0 mph24.1 kmh 29.94 in1013.9 mb 0.00 in0.0 mm 0.00 in0.0 mm 0.48 in12.2 mm
12:03 PM 46.8°F8.2°C 30.6°F-0.8°C 53% 4.0 mph WSW6.4 kmh WSW 9.0 mph14.5 kmh 29.94 in1013.9 mb 0.00 in0.0 mm 0.00 in0.0 mm 0.48 in12.2 mm
12:10 PM 47.1°F8.4°C 30.4°F-0.9°C 52% 5.0 mph WSW8.0 kmh WSW 12.0 mph19.3 kmh 29.94 in1013.9 mb 0.00 in0.0 mm 0.00 in0.0 mm 0.48 in12.2 mm
12:17 PM 47.7°F8.7°C 30.4°F-0.9°C 51% 5.0 mph WNW8.0 kmh WNW 13.0 mph20.9 kmh 29.93 in1013.5 mb 0.00 in0.0 mm 0.00 in0.0 mm 0.48 in12.2 mm
12:24 PM 47.1°F8.4°C 30.9°F-0.6°C 53% 5.0 mph N8.0 kmh N 15.0 mph24.1 kmh 29.93 in1013.5 mb 0.00 in0.0 mm 0.00 in0.0 mm 0.48 in12.2 mm
12:39 PM 48.4°F9.1°C 32.0°F0.0°C 53% 4.0 mph N6.4 kmh N 9.0 mph14.5 kmh 29.93 in1013.5 mb 0.00 in0.0 mm 0.00 in0.0 mm 0.48 in12.2 mm
12:46 PM 48.4°F9.1°C 31.1°F-0.5°C 51% 4.0 mph N6.4 kmh N 9.0 mph14.5 kmh 29.93 in1013.5 mb 0.00 in0.0 mm 0.00 in0.0 mm 0.48 in12.2 mm
12:53 PM 47.7°F8.7°C 30.4°F-0.9°C 51% 5.0 mph N8.0 kmh N 15.0 mph24.1 kmh 29.93 in1013.5 mb 0.00 in0.0 mm 0.00 in0.0 mm 0.48 in12.2 mm
01:16 PM 46.9°F8.3°C 30.2°F-1.0°C 52% 7.0 mph N11.3 kmh N 17.0 mph27.4 kmh 29.93 in1013.5 mb 0.00 in0.0 mm 0.00 in0.0 mm 0.48 in12.2 mm
01:23 PM 47.1°F8.4°C 30.9°F-0.6°C 53% 7.0 mph N11.3 kmh N 21.0 mph33.8 kmh 29.93 in1013.5 mb 0.00 in0.0 mm 0.00 in0.0 mm 0.48 in12.2 mm
01:30 PM 48.7°F9.3°C 31.8°F-0.1°C 52% 4.0 mph N6.4 kmh N 13.0 mph20.9 kmh 29.93 in1013.5 mb 0.00 in0.0 mm 0.00 in0.0 mm 0.48 in12.2 mm
01:37 PM 47.1°F8.4°C 30.0°F-1.1°C 51% 5.0 mph N8.0 kmh N 15.0 mph24.1 kmh 29.93 in1013.5 mb 0.00 in0.0 mm 0.00 in0.0 mm 0.48 in12.2 mm
01:44 PM 47.7°F8.7°C 30.0°F-1.1°C 50% 5.0 mph N8.0 kmh N 17.0 mph27.4 kmh 29.93 in1013.5 mb 0.00 in0.0 mm 0.00 in0.0 mm 0.48 in12.2 mm
01:51 PM 48.7°F9.3°C 29.8°F-1.2°C 48% 5.0 mph N8.0 kmh N 17.0 mph27.4 kmh 29.93 in1013.5 mb 0.00 in0.0 mm 0.00 in0.0 mm 0.48 in12.2 mm
01:58 PM 47.5°F8.6°C 29.8°F-1.2°C 50% 4.0 mph N6.4 kmh N 13.0 mph20.9 kmh 29.93 in1013.5 mb 0.00 in0.0 mm 0.00 in0.0 mm 0.48 in12.2 mm
02:05 PM 46.9°F8.3°C 29.7°F-1.3°C 51% 5.0 mph N8.0 kmh N 13.0 mph20.9 kmh 29.93 in1013.5 mb 0.00 in0.0 mm 0.00 in0.0 mm 0.48 in12.2 mm
02:12 PM 48.6°F9.2°C 30.2°F-1.0°C 49% 5.0 mph N8.0 kmh N 16.0 mph25.7 kmh 29.93 in1013.5 mb 0.00 in0.0 mm 0.00 in0.0 mm 0.48 in12.2 mm
02:19 PM 47.8°F8.8°C 30.6°F-0.8°C 51% 5.0 mph NNW8.0 kmh NNW 16.0 mph25.7 kmh 29.93 in1013.5 mb 0.00 in0.0 mm 0.00 in0.0 mm 0.48 in12.2 mm
02:26 PM 48.4°F9.1°C 30.0°F-1.1°C 49% 7.0 mph NW11.3 kmh NW 17.0 mph27.4 kmh 29.93 in1013.5 mb 0.00 in0.0 mm 0.00 in0.0 mm 0.48 in12.2 mm
02:33 PM 48.4°F9.1°C 29.7°F-1.3°C 48% 5.0 mph WSW8.0 kmh WSW 17.0 mph27.4 kmh 29.93 in1013.5 mb 0.00 in0.0 mm 0.00 in0.0 mm 0.48 in12.2 mm
02:40 PM 48.4°F9.1°C 29.7°F-1.3°C 48% 5.0 mph SW8.0 kmh SW 15.0 mph24.1 kmh 29.93 in1013.5 mb 0.00 in0.0 mm 0.00 in0.0 mm 0.48 in12.2 mm
02:47 PM 48.7°F9.3°C 29.8°F-1.2°C 48% 5.0 mph WSW8.0 kmh WSW 24.0 mph38.6 kmh 29.93 in1013.5 mb 0.00 in0.0 mm 0.00 in0.0 mm 0.48 in12.2 mm
02:54 PM 48.0°F8.9°C 29.3°F-1.5°C 48% 5.0 mph WSW8.0 kmh WSW 24.0 mph38.6 kmh 29.93 in1013.5 mb 0.00 in0.0 mm 0.00 in0.0 mm 0.48 in12.2 mm
03:01 PM 48.2°F9.0°C 28.9°F-1.7°C 47% 7.0 mph SW11.3 kmh SW 16.0 mph25.7 kmh 29.93 in1013.5 mb 0.00 in0.0 mm 0.00 in0.0 mm 0.48 in12.2 mm
03:08 PM 48.7°F9.3°C 29.3°F-1.5°C 47% 5.0 mph SW8.0 kmh SW 16.0 mph25.7 kmh 29.93 in1013.5 mb 0.00 in0.0 mm 0.00 in0.0 mm 0.48 in12.2 mm
03:15 PM 48.7°F9.3°C 29.3°F-1.5°C 47% 5.0 mph SW8.0 kmh SW 16.0 mph25.7 kmh 29.93 in1013.5 mb 0.00 in0.0 mm 0.00 in0.0 mm 0.48 in12.2 mm
03:22 PM 48.7°F9.3°C 29.8°F-1.2°C 48% 4.0 mph SW6.4 kmh SW 13.0 mph20.9 kmh 29.93 in1013.5 mb 0.00 in0.0 mm 0.00 in0.0 mm 0.48 in12.2 mm
03:29 PM 48.7°F9.3°C 30.9°F-0.6°C 50% 4.0 mph SW6.4 kmh SW 9.0 mph14.5 kmh 29.93 in1013.5 mb 0.00 in0.0 mm 0.00 in0.0 mm 0.48 in12.2 mm
03:36 PM 48.9°F9.4°C 30.6°F-0.8°C 49% 3.0 mph SW4.8 kmh SW 9.0 mph14.5 kmh 29.93 in1013.5 mb 0.00 in0.0 mm 0.00 in0.0 mm 0.48 in12.2 mm
03:43 PM 48.7°F9.3°C 29.5°F-1.4°C 47% 4.0 mph SW6.4 kmh SW 13.0 mph20.9 kmh 29.93 in1013.5 mb 0.00 in0.0 mm 0.00 in0.0 mm 0.48 in12.2 mm
03:50 PM 48.9°F9.4°C 30.0°F-1.1°C 48% 5.0 mph WSW8.0 kmh WSW 15.0 mph24.1 kmh 29.93 in1013.5 mb 0.00 in0.0 mm 0.00 in0.0 mm 0.48 in12.2 mm
03:57 PM 48.7°F9.3°C 30.4°F-0.9°C 49% 4.0 mph NNW6.4 kmh NNW 15.0 mph24.1 kmh 29.93 in1013.5 mb 0.00 in0.0 mm 0.00 in0.0 mm 0.48 in12.2 mm
04:04 PM 48.7°F9.3°C 30.4°F-0.9°C 49% 4.0 mph N6.4 kmh N 9.0 mph14.5 kmh 29.93 in1013.5 mb 0.00 in0.0 mm 0.00 in0.0 mm 0.48 in12.2 mm
04:11 PM 48.9°F9.4°C 30.0°F-1.1°C 48% 4.0 mph N6.4 kmh N 12.0 mph19.3 kmh 29.94 in1013.9 mb 0.00 in0.0 mm 0.00 in0.0 mm 0.48 in12.2 mm
04:18 PM 48.4°F9.1°C 29.7°F-1.3°C 48% 5.0 mph N8.0 kmh N 16.0 mph25.7 kmh 29.93 in1013.5 mb 0.00 in0.0 mm 0.00 in0.0 mm 0.48 in12.2 mm
04:25 PM 48.4°F9.1°C 29.1°F-1.6°C 47% 4.0 mph N6.4 kmh N 12.0 mph19.3 kmh 29.94 in1013.9 mb 0.00 in0.0 mm 0.00 in0.0 mm 0.48 in12.2 mm
04:32 PM 48.0°F8.9°C 29.3°F-1.5°C 48% 4.0 mph N6.4 kmh N 12.0 mph19.3 kmh 29.94 in1013.9 mb 0.00 in0.0 mm 0.00 in0.0 mm 0.48 in12.2 mm
04:39 PM 47.8°F8.8°C 29.1°F-1.6°C 48% 5.0 mph N8.0 kmh N 9.0 mph14.5 kmh 29.94 in1013.9 mb 0.00 in0.0 mm 0.00 in0.0 mm 0.48 in12.2 mm
04:46 PM 47.7°F8.7°C 29.3°F-1.5°C 49% 3.0 mph N4.8 kmh N 7.0 mph11.3 kmh 29.94 in1013.9 mb 0.00 in0.0 mm 0.00 in0.0 mm 0.48 in12.2 mm
04:53 PM 47.3°F8.5°C 28.6°F-1.9°C 48% 3.0 mph N4.8 kmh N 12.0 mph19.3 kmh 29.94 in1013.9 mb 0.00 in0.0 mm 0.00 in0.0 mm 0.48 in12.2 mm
05:00 PM 46.9°F8.3°C 28.8°F-1.8°C 49% 4.0 mph N6.4 kmh N 12.0 mph19.3 kmh 29.94 in1013.9 mb 0.00 in0.0 mm 0.00 in0.0 mm 0.48 in12.2 mm
05:07 PM 46.6°F8.1°C 28.9°F-1.7°C 50% 3.0 mph N4.8 kmh N 9.0 mph14.5 kmh 29.94 in1013.9 mb 0.00 in0.0 mm 0.00 in0.0 mm 0.48 in12.2 mm
05:14 PM 46.4°F8.0°C 29.3°F-1.5°C 51% 3.0 mph N4.8 kmh N 8.0 mph12.9 kmh 29.94 in1013.9 mb 0.00 in0.0 mm 0.00 in0.0 mm 0.48 in12.2 mm
05:21 PM 46.0°F7.8°C 29.5°F-1.4°C 52% 3.0 mph N4.8 kmh N 8.0 mph12.9 kmh 29.93 in1013.5 mb 0.00 in0.0 mm 0.00 in0.0 mm 0.48 in12.2 mm
05:28 PM 45.9°F7.7°C 29.1°F-1.6°C 52% 3.0 mph N4.8 kmh N 8.0 mph12.9 kmh 29.93 in1013.5 mb 0.00 in0.0 mm 0.00 in0.0 mm 0.48 in12.2 mm
05:35 PM 45.5°F7.5°C 29.3°F-1.5°C 53% 1.0 mph N1.6 kmh N 3.0 mph4.8 kmh 29.93 in1013.5 mb 0.00 in0.0 mm 0.00 in0.0 mm 0.48 in12.2 mm
05:42 PM 45.0°F7.2°C 29.3°F-1.5°C 54% Calm Calm 3.0 mph4.8 kmh 29.93 in1013.5 mb 0.00 in0.0 mm 0.00 in0.0 mm 0.48 in12.2 mm
05:49 PM 44.8°F7.1°C 29.7°F-1.3°C 55% Calm Calm 1.0 mph1.6 kmh 29.93 in1013.5 mb 0.00 in0.0 mm 0.00 in0.0 mm 0.48 in12.2 mm
05:56 PM 44.4°F6.9°C 29.7°F-1.3°C 56% 1.0 mph N1.6 kmh N 3.0 mph4.8 kmh 29.93 in1013.5 mb 0.00 in0.0 mm 0.00 in0.0 mm 0.48 in12.2 mm
06:03 PM 44.2°F6.8°C 29.1°F-1.6°C 55% 1.0 mph N1.6 kmh N 4.0 mph6.4 kmh 29.93 in1013.5 mb 0.00 in0.0 mm 0.00 in0.0 mm 0.48 in12.2 mm
06:10 PM 44.2°F6.8°C 29.1°F-1.6°C 55% 1.0 mph N1.6 kmh N 4.0 mph6.4 kmh 29.94 in1013.9 mb 0.00 in0.0 mm 0.00 in0.0 mm 0.48 in12.2 mm
06:17 PM 43.9°F6.6°C 29.1°F-1.6°C 56% 1.0 mph N1.6 kmh N 4.0 mph6.4 kmh 29.94 in1013.9 mb 0.00 in0.0 mm 0.00 in0.0 mm 0.48 in12.2 mm
06:24 PM 43.3°F6.3°C 29.1°F-1.6°C 57% Calm Calm 4.0 mph6.4 kmh 29.94 in1013.9 mb 0.00 in0.0 mm 0.00 in0.0 mm 0.48 in12.2 mm
06:31 PM 41.7°F5.4°C 28.8°F-1.8°C 60% Calm Calm 1.0 mph1.6 kmh 29.94 in1013.9 mb 0.00 in0.0 mm 0.00 in0.0 mm 0.48 in12.2 mm
06:38 PM 41.4°F5.2°C 28.9°F-1.7°C 61% Calm Calm -- 29.94 in1013.9 mb 0.00 in0.0 mm 0.00 in0.0 mm 0.48 in12.2 mm
06:45 PM 40.8°F4.9°C 28.9°F-1.7°C 62% Calm Calm -- 29.95 in1014.2 mb 0.00 in0.0 mm 0.00 in0.0 mm 0.48 in12.2 mm
06:52 PM 40.6°F4.8°C 29.1°F-1.6°C 63% Calm Calm 1.0 mph1.6 kmh 29.95 in1014.2 mb 0.00 in0.0 mm 0.00 in0.0 mm 0.48 in12.2 mm
06:59 PM 40.8°F4.9°C 28.9°F-1.7°C 62% Calm Calm 1.0 mph1.6 kmh 29.95 in1014.2 mb 0.00 in0.0 mm 0.00 in0.0 mm 0.48 in12.2 mm
07:06 PM 41.4°F5.2°C 28.9°F-1.7°C 61% Calm Calm 3.0 mph4.8 kmh 29.95 in1014.2 mb 0.00 in0.0 mm 0.00 in0.0 mm 0.48 in12.2 mm
07:13 PM 40.3°F4.6°C 28.8°F-1.8°C 63% Calm Calm 1.0 mph1.6 kmh 29.95 in1014.2 mb 0.00 in0.0 mm 0.00 in0.0 mm 0.48 in12.2 mm
07:20 PM 39.6°F4.2°C 28.4°F-2.0°C 64% Calm Calm -- 29.95 in1014.2 mb 0.00 in0.0 mm 0.00 in0.0 mm 0.48 in12.2 mm
07:27 PM 39.0°F3.9°C 28.4°F-2.0°C 65% Calm Calm -- 29.94 in1013.9 mb 0.00 in0.0 mm 0.00 in0.0 mm 0.48 in12.2 mm
07:34 PM 39.7°F4.3°C 28.9°F-1.7°C 65% Calm Calm -- 29.95 in1014.2 mb 0.00 in0.0 mm 0.00 in0.0 mm 0.48 in12.2 mm
07:41 PM 40.8°F4.9°C 29.1°F-1.6°C 63% Calm Calm 4.0 mph6.4 kmh 29.95 in1014.2 mb 0.00 in0.0 mm 0.00 in0.0 mm 0.48 in12.2 mm
07:48 PM 39.7°F4.3°C 28.6°F-1.9°C 64% Calm Calm 4.0 mph6.4 kmh 29.94 in1013.9 mb 0.00 in0.0 mm 0.00 in0.0 mm 0.48 in12.2 mm
07:55 PM 39.2°F4.0°C 28.4°F-2.0°C 65% Calm Calm -- 29.95 in1014.2 mb 0.00 in0.0 mm 0.00 in0.0 mm 0.48 in12.2 mm
08:02 PM 39.9°F4.4°C 28.8°F-1.8°C 64% Calm Calm 1.0 mph1.6 kmh 29.95 in1014.2 mb 0.00 in0.0 mm 0.00 in0.0 mm 0.48 in12.2 mm
08:09 PM 39.7°F4.3°C 28.6°F-1.9°C 64% Calm Calm 3.0 mph4.8 kmh 29.95 in1014.2 mb 0.00 in0.0 mm 0.00 in0.0 mm 0.48 in12.2 mm
08:16 PM 40.3°F4.6°C 28.8°F-1.8°C 63% Calm Calm 3.0 mph4.8 kmh 29.95 in1014.2 mb 0.00 in0.0 mm 0.00 in0.0 mm 0.48 in12.2 mm
08:23 PM 39.9°F4.4°C 28.4°F-2.0°C 63% Calm Calm 1.0 mph1.6 kmh 29.95 in1014.2 mb 0.00 in0.0 mm 0.00 in0.0 mm 0.48 in12.2 mm
08:30 PM 40.3°F4.6°C 28.8°F-1.8°C 63% Calm Calm 3.0 mph4.8 kmh 29.94 in1013.9 mb 0.00 in0.0 mm 0.00 in0.0 mm 0.48 in12.2 mm
08:37 PM 40.3°F4.6°C 28.6°F-1.9°C 63% Calm Calm 3.0 mph4.8 kmh 29.94 in1013.9 mb 0.00 in0.0 mm 0.00 in0.0 mm 0.48 in12.2 mm
08:44 PM 39.9°F4.4°C 28.4°F-2.0°C 63% Calm Calm 3.0 mph4.8 kmh 29.94 in1013.9 mb 0.00 in0.0 mm 0.00 in0.0 mm 0.48 in12.2 mm
08:51 PM 40.8°F4.9°C 28.4°F-2.0°C 61% Calm Calm 3.0 mph4.8 kmh 29.94 in1013.9 mb 0.00 in0.0 mm 0.00 in0.0 mm 0.48 in12.2 mm
08:58 PM 40.8°F4.9°C 28.0°F-2.2°C 60% Calm Calm 3.0 mph4.8 kmh 29.94 in1013.9 mb 0.00 in0.0 mm 0.00 in0.0 mm 0.48 in12.2 mm
09:05 PM 41.0°F5.0°C 28.6°F-1.9°C 61% Calm Calm 1.0 mph1.6 kmh 29.94 in1013.9 mb 0.00 in0.0 mm 0.00 in0.0 mm 0.48 in12.2 mm
09:12 PM 41.0°F5.0°C 28.2°F-2.1°C 60% Calm Calm 1.0 mph1.6 kmh 29.94 in1013.9 mb 0.00 in0.0 mm 0.00 in0.0 mm 0.48 in12.2 mm
09:19 PM 40.6°F4.8°C 28.2°F-2.1°C 61% Calm Calm -- 29.94 in1013.9 mb 0.00 in0.0 mm 0.00 in0.0 mm 0.48 in12.2 mm
09:26 PM 40.5°F4.7°C 28.0°F-2.2°C 61% Calm Calm -- 29.94 in1013.9 mb 0.00 in0.0 mm 0.00 in0.0 mm 0.48 in12.2 mm
09:33 PM 40.5°F4.7°C 28.0°F-2.2°C 61% Calm Calm -- 29.94 in1013.9 mb 0.00 in0.0 mm 0.00 in0.0 mm 0.48 in12.2 mm
09:40 PM 40.3°F4.6°C 28.2°F-2.1°C 62% Calm Calm -- 29.94 in1013.9 mb 0.00 in0.0 mm 0.00 in0.0 mm 0.48 in12.2 mm
09:47 PM 40.5°F4.7°C 28.0°F-2.2°C 61% Calm Calm 3.0 mph4.8 kmh 29.94 in1013.9 mb 0.00 in0.0 mm 0.00 in0.0 mm 0.48 in12.2 mm
09:54 PM 40.6°F4.8°C 28.2°F-2.1°C 61% 1.0 mph N1.6 kmh N 4.0 mph6.4 kmh 29.94 in1013.9 mb 0.00 in0.0 mm 0.00 in0.0 mm 0.48 in12.2 mm
10:01 PM 40.6°F4.8°C 28.2°F-2.1°C 61% Calm Calm 3.0 mph4.8 kmh 29.94 in1013.9 mb 0.00 in0.0 mm 0.00 in0.0 mm 0.48 in12.2 mm
10:08 PM 40.6°F4.8°C 28.2°F-2.1°C 61% Calm Calm 1.0 mph1.6 kmh 29.94 in1013.9 mb 0.00 in0.0 mm 0.00 in0.0 mm 0.48 in12.2 mm
10:15 PM 39.9°F4.4°C 27.9°F-2.3°C 62% Calm Calm 1.0 mph1.6 kmh 29.94 in1013.9 mb 0.00 in0.0 mm 0.00 in0.0 mm 0.48 in12.2 mm
10:22 PM 39.7°F4.3°C 27.9°F-2.3°C 62% Calm Calm 1.0 mph1.6 kmh 29.94 in1013.9 mb 0.00 in0.0 mm 0.00 in0.0 mm 0.48 in12.2 mm
10:29 PM 40.3°F4.6°C 27.9°F-2.3°C 61% Calm Calm 3.0 mph4.8 kmh 29.94 in1013.9 mb 0.00 in0.0 mm 0.00 in0.0 mm 0.48 in12.2 mm
10:36 PM 39.9°F4.4°C 27.9°F-2.3°C 62% Calm Calm 4.0 mph6.4 kmh 29.94 in1013.9 mb 0.00 in0.0 mm 0.00 in0.0 mm 0.48 in12.2 mm
10:43 PM 38.7°F3.7°C 27.5°F-2.5°C 64% Calm Calm -- 29.94 in1013.9 mb 0.00 in0.0 mm 0.00 in0.0 mm 0.48 in12.2 mm
10:50 PM 38.5°F3.6°C 27.7°F-2.4°C 65% Calm Calm -- 29.93 in1013.5 mb 0.00 in0.0 mm 0.00 in0.0 mm 0.48 in12.2 mm
10:57 PM 38.8°F3.8°C 27.7°F-2.4°C 64% Calm Calm -- 29.94 in1013.9 mb 0.00 in0.0 mm 0.00 in0.0 mm 0.48 in12.2 mm
11:04 PM 38.3°F3.5°C 27.5°F-2.5°C 65% Calm Calm -- 29.93 in1013.5 mb 0.00 in0.0 mm 0.00 in0.0 mm 0.27 in6.9 mm
11:11 PM 38.1°F3.4°C 27.3°F-2.6°C 65% Calm Calm -- 29.93 in1013.5 mb 0.00 in0.0 mm 0.00 in0.0 mm 0.27 in6.9 mm
11:18 PM 37.9°F3.3°C 27.3°F-2.6°C 65% Calm Calm 1.0 mph1.6 kmh 29.93 in1013.5 mb 0.00 in0.0 mm 0.00 in0.0 mm 0.27 in6.9 mm
11:25 PM 37.9°F3.3°C 27.5°F-2.5°C 66% Calm Calm 3.0 mph4.8 kmh 29.93 in1013.5 mb 0.00 in0.0 mm 0.00 in0.0 mm 0.27 in6.9 mm
11:32 PM 38.8°F3.8°C 28.0°F-2.2°C 65% Calm Calm 3.0 mph4.8 kmh 29.94 in1013.9 mb 0.00 in0.0 mm 0.00 in0.0 mm 0.27 in6.9 mm
11:39 PM 40.1°F4.5°C 28.6°F-1.9°C 63% Calm Calm 3.0 mph4.8 kmh 29.93 in1013.5 mb 0.00 in0.0 mm 0.00 in0.0 mm 0.27 in6.9 mm
11:46 PM 39.9°F4.4°C 28.0°F-2.2°C 62% Calm Calm 1.0 mph1.6 kmh 29.93 in1013.5 mb 0.00 in0.0 mm 0.00 in0.0 mm 0.27 in6.9 mm
11:53 PM 39.9°F4.4°C 28.8°F-1.8°C 64% Calm Calm -- 29.93 in1013.5 mb 0.00 in0.0 mm 0.00 in0.0 mm 0.27 in6.9 mm